This is the latest recevied weather packets stored in our database for station/object KO6MEX-13. If no packets are shown the sender has not sent any weather packets the latest 10 day(s).
| Time | Temp. | Humidity | Pressure | Rain* | Wind** | Luminosity | Snow |
|---|---|---|---|---|---|---|---|
| 1777847339 | 18.33° C | 50% | 1017.2 hPa | 0 mm | - | 642 W/m² | - |
| 1777847038 | 18.89° C | 50% | 1017 hPa | 0 mm | - | 602 W/m² | - |
| 1777846736 | 18.89° C | 51% | 1017.2 hPa | 0 mm | - | 580 W/m² | - |
| 1777846435 | 19.44° C | 49% | 1017.4 hPa | 0 mm | - | 610 W/m² | - |
| 1777846130 | 18.89° C | 51% | 1017.3 hPa | 0 mm | - | 664 W/m² | - |
| 1777845827 | 18.89° C | 50% | 1017.3 hPa | 0 mm | - | 679 W/m² | - |
| 1777845524 | 18.89° C | 49% | 1017.3 hPa | 0 mm | - | 677 W/m² | - |
| 1777845222 | 18.89° C | 49% | 1017.4 hPa | 0 mm | - | 672 W/m² | - |
| 1777844919 | 18.33° C | 52% | 1017.3 hPa | 0 mm | - | 675 W/m² | - |
| 1777844616 | 19.44° C | 48% | 1017.5 hPa | 0 mm | - | 692 W/m² | - |
| 1777844313 | 18.33° C | 53% | 1017.6 hPa | 0 mm | - | 695 W/m² | - |
| 1777844011 | 17.78° C | 53% | 1017.5 hPa | 0 mm | - | 686 W/m² | - |
| 1777843708 | 17.78° C | 56% | 1017.4 hPa | 0 mm | - | 670 W/m² | - |
| 1777843406 | 18.89° C | 55% | 1017.2 hPa | 0 mm | - | 687 W/m² | - |
| 1777843103 | 17.78° C | 58% | 1017.6 hPa | 0 mm | - | 697 W/m² | - |
| 1777842799 | 17.78° C | 58% | 1017.4 hPa | 0 mm | - | 687 W/m² | - |
| 1777842499 | 17.78° C | 56% | 1017.7 hPa | 0 mm | - | 618 W/m² | - |
| 1777842197 | 18.33° C | 55% | 1017.7 hPa | 0 mm | - | 562 W/m² | - |
| 1777841892 | 18.89° C | 55% | 1017.5 hPa | 0 mm | - | 632 W/m² | - |
| 1777841589 | 18.33° C | 56% | 1017.4 hPa | 0 mm | - | 702 W/m² | - |
| 1777841285 | 18.33° C | 55% | 1017.4 hPa | 0 mm | - | 680 W/m² | - |
| 1777840983 | 17.78° C | 58% | 1017.6 hPa | 0 mm | - | 696 W/m² | - |
| 1777840680 | 17.78° C | 60% | 1017.8 hPa | 0 mm | - | 724 W/m² | - |
| 1777840377 | 17.78° C | 58% | 1017.9 hPa | 0 mm | - | 727 W/m² | - |
| 1777840074 | 17.22° C | 61% | 1017.9 hPa | 0 mm | - | 722 W/m² | - |
* Rain latest hour (hover to see other rain measurements)
** Current wind speed in m/s (hover to see current wind gust speed)